Terminal Aerodrome Forecast
Issued by NWS Missoula, MT

Home | Current Version | Previous Version | Text Only | Print | Product List | Glossary On
Versions: 1 2 3 4 5 6 7 8 9 10 11 12 13 14 15 16
000
FTUS45 KMSO 271131
TAFMSO
TAF
KMSO 271131Z 2712/2812 11010KT P6SM SCT050 SCT100
     FM280000 10018G25KT P6SM SCT100
     FM280800 10012G20KT P6SM SCT150=

USA.gov is the U.S. government's official web portal to all federal, state and local government web resources and services.